sensor_id;sensor_type;location;lat;lon;timestamp;pressure;altitude;pressure_sealevel;temperature;humidity
9721;BME280;4899;42.644;23.366;2023-06-14T00:01:40;94016.78;;;16.96;100.00
9721;BME280;4899;42.644;23.366;2023-06-14T00:04:06;94012.34;;;16.96;100.00
9721;BME280;4899;42.644;23.366;2023-06-14T00:06:34;94012.31;;;16.92;100.00
9721;BME280;4899;42.644;23.366;2023-06-14T00:09:00;94019.47;;;17.03;100.00
9721;BME280;4899;42.644;23.366;2023-06-14T00:11:25;94009.78;;;17.00;100.00
9721;BME280;4899;42.644;23.366;2023-06-14T00:13:52;94007.59;;;17.02;100.00
9721;BME280;4899;42.644;23.366;2023-06-14T00:16:18;94012.78;;;17.02;100.00
9721;BME280;4899;42.644;23.366;2023-06-14T00:18:45;94016.19;;;17.06;100.00
9721;BME280;4899;42.644;23.366;2023-06-14T00:21:11;94006.19;;;17.08;100.00
9721;BME280;4899;42.644;23.366;2023-06-14T00:23:37;94003.56;;;17.08;100.00
9721;BME280;4899;42.644;23.366;2023-06-14T00:26:03;93999.09;;;17.05;100.00
9721;BME280;4899;42.644;23.366;2023-06-14T00:28:28;93996.88;;;17.07;100.00
9721;BME280;4899;42.644;23.366;2023-06-14T00:30:54;93966.22;;;16.86;100.00
9721;BME280;4899;42.644;23.366;2023-06-14T00:33:19;93993.53;;;17.06;100.00
9721;BME280;4899;42.644;23.366;2023-06-14T00:35:45;93996.53;;;17.08;100.00
9721;BME280;4899;42.644;23.366;2023-06-14T00:38:10;93991.69;;;17.07;100.00
9721;BME280;4899;42.644;23.366;2023-06-14T00:40:36;93991.75;;;17.10;100.00
9721;BME280;4899;42.644;23.366;2023-06-14T00:43:01;93990.59;;;17.08;100.00
9721;BME280;4899;42.644;23.366;2023-06-14T00:45:27;93984.28;;;17.09;100.00
9721;BME280;4899;42.644;23.366;2023-06-14T00:47:52;93986.19;;;17.12;100.00
9721;BME280;4899;42.644;23.366;2023-06-14T00:50:20;93987.34;;;17.14;100.00
9721;BME280;4899;42.644;23.366;2023-06-14T00:52:48;93989.22;;;17.17;100.00
9721;BME280;4899;42.644;23.366;2023-06-14T00:55:13;93987.00;;;17.16;100.00
9721;BME280;4899;42.644;23.366;2023-06-14T00:57:38;93978.41;;;17.12;100.00
9721;BME280;4899;42.644;23.366;2023-06-14T01:00:05;93979.94;;;17.16;100.00
9721;BME280;4899;42.644;23.366;2023-06-14T01:02:38;93982.88;;;17.15;100.00
9721;BME280;4899;42.644;23.366;2023-06-14T01:05:04;93987.59;;;16.76;100.00
9721;BME280;4899;42.644;23.366;2023-06-14T01:10:52;93984.38;;;17.16;100.00
9721;BME280;4899;42.644;23.366;2023-06-14T01:13:21;93983.03;;;17.29;100.00
9721;BME280;4899;42.644;23.366;2023-06-14T01:15:50;93981.88;;;16.93;100.00
9721;BME280;4899;42.644;23.366;2023-06-14T01:18:16;93993.91;;;16.78;100.00
9721;BME280;4899;42.644;23.366;2023-06-14T01:20:43;93979.69;;;16.69;100.00
9721;BME280;4899;42.644;23.366;2023-06-14T01:23:21;93984.16;;;16.68;100.00
9721;BME280;4899;42.644;23.366;2023-06-14T01:25:48;93978.13;;;16.64;100.00
9721;BME280;4899;42.644;23.366;2023-06-14T01:28:19;93985.25;;;16.67;100.00
9721;BME280;4899;42.644;23.366;2023-06-14T01:30:52;93984.16;;;16.68;100.00
9721;BME280;4899;42.644;23.366;2023-06-14T01:33:21;93986.75;;;16.68;100.00
9721;BME280;4899;42.644;23.366;2023-06-14T01:35:49;93980.34;;;16.62;100.00
9721;BME280;4899;42.644;23.366;2023-06-14T01:38:17;93976.25;;;16.61;100.00
9721;BME280;4899;42.644;23.366;2023-06-14T01:40:44;93980.44;;;16.69;100.00
9721;BME280;4899;42.644;23.366;2023-06-14T01:43:11;93971.84;;;16.65;100.00
9721;BME280;4899;42.644;23.366;2023-06-14T01:45:40;93982.69;;;16.71;100.00
9721;BME280;4899;42.644;23.366;2023-06-14T01:48:06;93979.69;;;16.69;100.00
9721;BME280;4899;42.644;23.366;2023-06-14T01:50:31;93980.09;;;16.71;100.00
9721;BME280;4899;42.644;23.366;2023-06-14T01:52:57;93975.25;;;16.69;100.00
9721;BME280;4899;42.644;23.366;2023-06-14T01:55:23;93972.13;;;16.60;100.00
9721;BME280;4899;42.644;23.366;2023-06-14T01:57:52;93976.63;;;16.63;100.00
9721;BME280;4899;42.644;23.366;2023-06-14T02:00:18;93978.84;;;16.61;100.00
9721;BME280;4899;42.644;23.366;2023-06-14T02:02:45;93979.09;;;16.56;100.00
9721;BME280;4899;42.644;23.366;2023-06-14T02:05:11;93974.09;;;16.40;100.00
9721;BME280;4899;42.644;23.366;2023-06-14T02:07:36;93981.88;;;16.40;100.00
9721;BME280;4899;42.644;23.366;2023-06-14T02:10:04;93992.97;;;16.37;100.00
9721;BME280;4899;42.644;23.366;2023-06-14T02:12:30;93992.88;;;16.34;100.00
9721;BME280;4899;42.644;23.366;2023-06-14T02:14:55;93997.28;;;16.29;100.00
9721;BME280;4899;42.644;23.366;2023-06-14T02:17:22;93993.19;;;16.28;100.00
9721;BME280;4899;42.644;23.366;2023-06-14T02:19:47;93998.78;;;16.30;100.00
9721;BME280;4899;42.644;23.366;2023-06-14T02:22:14;93991.28;;;16.25;100.00
9721;BME280;4899;42.644;23.366;2023-06-14T02:24:40;93972.47;;;16.09;100.00
9721;BME280;4899;42.644;23.366;2023-06-14T02:27:06;94000.84;;;16.21;100.00
9721;BME280;4899;42.644;23.366;2023-06-14T02:29:32;94005.34;;;16.24;100.00
9721;BME280;4899;42.644;23.366;2023-06-14T02:31:57;94006.44;;;16.23;100.00
9721;BME280;4899;42.644;23.366;2023-06-14T02:34:23;94014.41;;;16.83;100.00
9721;BME280;4899;42.644;23.366;2023-06-14T02:36:48;94012.78;;;17.02;100.00
9721;BME280;4899;42.644;23.366;2023-06-14T02:39:15;94006.50;;;17.03;100.00
9721;BME280;4899;42.644;23.366;2023-06-14T02:41:40;94016.22;;;17.09;100.00
9721;BME280;4899;42.644;23.366;2023-06-14T02:44:06;94006.53;;;17.06;100.00
9721;BME280;4899;42.644;23.366;2023-06-14T02:46:32;94007.44;;;17.17;100.00
9721;BME280;4899;42.644;23.366;2023-06-14T02:48:57;94016.38;;;17.20;100.00
9721;BME280;4899;42.644;23.366;2023-06-14T02:51:23;94018.63;;;17.21;100.00
9721;BME280;4899;42.644;23.366;2023-06-14T02:53:48;94011.53;;;17.18;100.00
9721;BME280;4899;42.644;23.366;2023-06-14T02:56:13;94019.00;;;17.23;100.00
9721;BME280;4899;42.644;23.366;2023-06-14T02:58:39;94018.97;;;17.20;100.00
9721;BME280;4899;42.644;23.366;2023-06-14T03:01:06;94022.75;;;17.26;100.00
9721;BME280;4899;42.644;23.366;2023-06-14T03:03:33;94020.09;;;17.22;100.00
9721;BME280;4899;42.644;23.366;2023-06-14T03:05:58;94025.00;;;17.28;100.00
9721;BME280;4899;42.644;23.366;2023-06-14T03:08:30;94022.41;;;17.28;100.00
9721;BME280;4899;42.644;23.366;2023-06-14T03:10:57;94028.22;;;16.65;100.00
9721;BME280;4899;42.644;23.366;2023-06-14T03:13:22;94024.25;;;16.48;100.00
9721;BME280;4899;42.644;23.366;2023-06-14T03:15:48;94027.44;;;17.13;100.00
9721;BME280;4899;42.644;23.366;2023-06-14T03:18:16;94027.56;;;17.24;100.00
9721;BME280;4899;42.644;23.366;2023-06-14T03:20:41;94038.00;;;16.71;100.00
9721;BME280;4899;42.644;23.366;2023-06-14T03:23:08;94033.84;;;17.23;100.00
9721;BME280;4899;42.644;23.366;2023-06-14T03:25:33;94032.88;;;17.35;100.00
9721;BME280;4899;42.644;23.366;2023-06-14T03:28:01;94030.28;;;17.35;100.00
9721;BME280;4899;42.644;23.366;2023-06-14T03:30:27;94032.22;;;17.41;100.00
9721;BME280;4899;42.644;23.366;2023-06-14T03:32:53;94031.19;;;17.49;100.00
9721;BME280;4899;42.644;23.366;2023-06-14T03:35:21;94029.38;;;17.53;100.00
9721;BME280;4899;42.644;23.366;2023-06-14T03:37:47;94029.78;;;17.56;100.00
9721;BME280;4899;42.644;23.366;2023-06-14T03:40:15;94036.47;;;17.57;100.00
9721;BME280;4899;42.644;23.366;2023-06-14T03:42:41;94043.53;;;17.56;100.00
9721;BME280;4899;42.644;23.366;2023-06-14T03:45:07;94039.06;;;17.57;100.00
9721;BME280;4899;42.644;23.366;2023-06-14T03:47:34;94043.16;;;17.58;100.00
9721;BME280;4899;42.644;23.366;2023-06-14T03:50:02;94042.88;;;17.63;100.00
9721;BME280;4899;42.644;23.366;2023-06-14T03:52:27;94043.25;;;17.65;100.00
9721;BME280;4899;42.644;23.366;2023-06-14T03:54:53;94038.88;;;17.69;100.00
9721;BME280;4899;42.644;23.366;2023-06-14T03:57:19;94040.72;;;17.68;100.00
9721;BME280;4899;42.644;23.366;2023-06-14T03:59:45;94049.72;;;17.74;100.00
9721;BME280;4899;42.644;23.366;2023-06-14T04:02:11;94049.66;;;17.71;100.00
9721;BME280;4899;42.644;23.366;2023-06-14T04:04:37;94057.56;;;17.81;100.00
9721;BME280;4899;42.644;23.366;2023-06-14T04:07:03;94044.53;;;17.78;100.00
9721;BME280;4899;42.644;23.366;2023-06-14T04:09:31;94045.69;;;17.80;100.00
9721;BME280;4899;42.644;23.366;2023-06-14T04:11:57;94038.94;;;17.76;100.00
9721;BME280;4899;42.644;23.366;2023-06-14T04:14:22;94052.75;;;17.83;100.00
9721;BME280;4899;42.644;23.366;2023-06-14T04:16:49;94045.41;;;17.89;100.00
9721;BME280;4899;42.644;23.366;2023-06-14T04:19:15;94052.19;;;17.97;100.00
9721;BME280;4899;42.644;23.366;2023-06-14T04:21:41;94054.81;;;18.01;100.00
9721;BME280;4899;42.644;23.366;2023-06-14T04:24:07;94049.72;;;18.11;100.00
9721;BME280;4899;42.644;23.366;2023-06-14T04:26:41;94053.50;;;18.18;100.00
9721;BME280;4899;42.644;23.366;2023-06-14T04:29:10;94043.81;;;18.18;100.00
9721;BME280;4899;42.644;23.366;2023-06-14T04:31:48;94061.13;;;18.40;100.00
9721;BME280;4899;42.644;23.366;2023-06-14T04:34:14;94052.97;;;18.45;100.00
9721;BME280;4899;42.644;23.366;2023-06-14T04:36:43;94037.03;;;18.54;100.00
9721;BME280;4899;42.644;23.366;2023-06-14T04:39:17;94045.72;;;18.65;100.00
9721;BME280;4899;42.644;23.366;2023-06-14T04:41:43;94060.34;;;17.96;100.00
9721;BME280;4899;42.644;23.366;2023-06-14T04:44:09;94047.63;;;17.87;100.00
9721;BME280;4899;42.644;23.366;2023-06-14T04:46:35;94053.31;;;18.85;100.00
9721;BME280;4899;42.644;23.366;2023-06-14T04:49:09;94047.41;;;18.95;100.00
9721;BME280;4899;42.644;23.366;2023-06-14T04:51:35;94047.41;;;18.98;100.00
9721;BME280;4899;42.644;23.366;2023-06-14T04:54:02;94050.78;;;18.99;100.00
9721;BME280;4899;42.644;23.366;2023-06-14T04:56:28;94055.91;;;18.85;100.00
9721;BME280;4899;42.644;23.366;2023-06-14T04:58:55;94057.56;;;19.14;100.00
9721;BME280;4899;42.644;23.366;2023-06-14T05:01:22;94067.28;;;19.17;100.00
9721;BME280;4899;42.644;23.366;2023-06-14T05:03:49;94066.13;;;19.11;100.00
9721;BME280;4899;42.644;23.366;2023-06-14T05:06:15;94067.31;;;19.24;100.00
9721;BME280;4899;42.644;23.366;2023-06-14T05:08:41;94066.91;;;19.22;100.00
9721;BME280;4899;42.644;23.366;2023-06-14T05:11:06;94062.81;;;19.21;100.00
9721;BME280;4899;42.644;23.366;2023-06-14T05:13:32;94073.63;;;19.23;100.00
9721;BME280;4899;42.644;23.366;2023-06-14T05:15:58;94073.25;;;19.21;100.00
9721;BME280;4899;42.644;23.366;2023-06-14T05:18:24;94072.47;;;19.14;100.00
9721;BME280;4899;42.644;23.366;2023-06-14T05:20:51;94074.00;;;19.22;100.00
9721;BME280;4899;42.644;23.366;2023-06-14T05:23:16;94080.78;;;19.33;100.00
9721;BME280;4899;42.644;23.366;2023-06-14T05:25:45;94087.53;;;19.42;100.00
9721;BME280;4899;42.644;23.366;2023-06-14T05:28:11;94086.03;;;19.41;100.00
9721;BME280;4899;42.644;23.366;2023-06-14T05:30:38;94092.03;;;19.52;100.00
9721;BME280;4899;42.644;23.366;2023-06-14T05:33:04;94094.75;;;19.66;100.00
9721;BME280;4899;42.644;23.366;2023-06-14T05:35:30;94089.16;;;19.75;100.00
9721;BME280;4899;42.644;23.366;2023-06-14T05:37:55;94087.00;;;19.87;100.00
9721;BME280;4899;42.644;23.366;2023-06-14T05:40:21;94095.97;;;20.01;100.00
9721;BME280;4899;42.644;23.366;2023-06-14T05:42:47;94087.00;;;19.94;100.00
9721;BME280;4899;42.644;23.366;2023-06-14T05:45:12;94096.75;;;20.22;100.00
9721;BME280;4899;42.644;23.366;2023-06-14T05:47:39;94091.97;;;20.49;100.00
9721;BME280;4899;42.644;23.366;2023-06-14T05:50:05;94107.28;;;20.76;100.00
9721;BME280;4899;42.644;23.366;2023-06-14T05:52:30;94101.31;;;20.97;100.00
9721;BME280;4899;42.644;23.366;2023-06-14T05:54:56;94106.53;;;21.04;100.00
9721;BME280;4899;42.644;23.366;2023-06-14T05:57:22;94103.56;;;21.12;100.00
9721;BME280;4899;42.644;23.366;2023-06-14T05:59:47;94099.06;;;21.24;100.00
9721;BME280;4899;42.644;23.366;2023-06-14T06:02:12;94100.56;;;21.32;100.00
9721;BME280;4899;42.644;23.366;2023-06-14T06:04:38;94108.75;;;21.37;100.00
9721;BME280;4899;42.644;23.366;2023-06-14T06:07:04;94107.25;;;21.22;100.00
9721;BME280;4899;42.644;23.366;2023-06-14T06:09:30;94110.25;;;21.28;100.00
9721;BME280;4899;42.644;23.366;2023-06-14T06:11:55;94111.03;;;21.25;100.00
9721;BME280;4899;42.644;23.366;2023-06-14T06:14:21;94108.03;;;21.26;100.00
9721;BME280;4899;42.644;23.366;2023-06-14T06:16:46;94109.16;;;21.25;100.00
9721;BME280;4899;42.644;23.366;2023-06-14T06:19:12;94114.00;;;21.12;100.00
9721;BME280;4899;42.644;23.366;2023-06-14T06:21:37;94116.63;;;21.27;100.00
9721;BME280;4899;42.644;23.366;2023-06-14T06:24:04;94116.63;;;21.12;100.00
9721;BME280;4899;42.644;23.366;2023-06-14T06:26:31;94120.34;;;21.15;100.00
9721;BME280;4899;42.644;23.366;2023-06-14T06:28:57;94118.47;;;21.05;100.00
9721;BME280;4899;42.644;23.366;2023-06-14T06:31:23;94123.34;;;20.81;100.00
9721;BME280;4899;42.644;23.366;2023-06-14T06:33:49;94120.38;;;20.72;100.00
9721;BME280;4899;42.644;23.366;2023-06-14T06:36:15;94123.38;;;20.60;100.00
9721;BME280;4899;42.644;23.366;2023-06-14T06:38:40;94129.69;;;20.55;100.00
9721;BME280;4899;42.644;23.366;2023-06-14T06:41:06;94131.91;;;20.53;100.00
9721;BME280;4899;42.644;23.366;2023-06-14T06:43:31;94129.69;;;20.41;100.00
9721;BME280;4899;42.644;23.366;2023-06-14T06:45:56;94132.63;;;20.36;100.00
9721;BME280;4899;42.644;23.366;2023-06-14T06:48:22;94130.81;;;20.44;100.00
9721;BME280;4899;42.644;23.366;2023-06-14T06:50:47;94133.41;;;20.44;100.00
9721;BME280;4899;42.644;23.366;2023-06-14T06:53:13;94135.66;;;20.52;100.00
9721;BME280;4899;42.644;23.366;2023-06-14T06:55:38;94138.66;;;20.54;100.00
9721;BME280;4899;42.644;23.366;2023-06-14T06:58:03;94131.59;;;20.58;100.00
9721;BME280;4899;42.644;23.366;2023-06-14T07:00:30;94141.66;;;20.71;100.00
9721;BME280;4899;42.644;23.366;2023-06-14T07:02:56;94134.19;;;20.87;100.00
9721;BME280;4899;42.644;23.366;2023-06-14T07:05:22;94136.44;;;20.99;100.00
9721;BME280;4899;42.644;23.366;2023-06-14T07:07:48;94133.34;;;20.29;100.00
9721;BME280;4899;42.644;23.366;2023-06-14T07:10:13;94131.50;;;20.34;100.00
9721;BME280;4899;42.644;23.366;2023-06-14T07:12:39;94135.28;;;20.50;100.00
9721;BME280;4899;42.644;23.366;2023-06-14T07:15:07;94124.09;;;20.53;100.00
9721;BME280;4899;42.644;23.366;2023-06-14T07:17:34;94133.78;;;20.53;100.00
9721;BME280;4899;42.644;23.366;2023-06-14T07:19:59;94127.81;;;20.52;100.00
9721;BME280;4899;42.644;23.366;2023-06-14T07:22:26;94118.88;;;20.64;100.00
9721;BME280;4899;42.644;23.366;2023-06-14T07:24:51;94134.94;;;20.80;100.00
9721;BME280;4899;42.644;23.366;2023-06-14T07:27:17;94123.38;;;20.85;100.00
9721;BME280;4899;42.644;23.366;2023-06-14T07:29:42;94123.72;;;20.98;100.00
9721;BME280;4899;42.644;23.366;2023-06-14T07:32:08;94120.75;;;20.99;100.00
9721;BME280;4899;42.644;23.366;2023-06-14T07:34:33;94124.84;;;21.11;100.00
9721;BME280;4899;42.644;23.366;2023-06-14T07:36:59;94128.97;;;21.15;100.00
9721;BME280;4899;42.644;23.366;2023-06-14T07:39:24;94122.25;;;21.07;100.00
9721;BME280;4899;42.644;23.366;2023-06-14T07:41:50;94120.34;;;21.04;100.00
9721;BME280;4899;42.644;23.366;2023-06-14T07:44:15;94114.00;;;21.02;100.00
9721;BME280;4899;42.644;23.366;2023-06-14T07:46:41;94125.22;;;21.16;100.00
9721;BME280;4899;42.644;23.366;2023-06-14T07:49:07;94124.47;;;21.19;100.00
9721;BME280;4899;42.644;23.366;2023-06-14T07:51:32;94126.34;;;21.08;100.00
9721;BME280;4899;42.644;23.366;2023-06-14T07:53:59;94137.91;;;21.29;100.00
9721;BME280;4899;42.644;23.366;2023-06-14T07:56:26;94125.97;;;21.38;100.00
9721;BME280;4899;42.644;23.366;2023-06-14T07:58:51;94134.88;;;21.59;100.00
9721;BME280;4899;42.644;23.366;2023-06-14T08:01:17;94133.38;;;21.65;100.00
9721;BME280;4899;42.644;23.366;2023-06-14T08:03:42;94133.00;;;21.66;100.00
9721;BME280;4899;42.644;23.366;2023-06-14T08:06:08;94130.34;;;21.73;100.00
9721;BME280;4899;42.644;23.366;2023-06-14T08:08:33;94148.97;;;21.97;100.00
9721;BME280;4899;42.644;23.366;2023-06-14T08:10:59;94149.63;;;22.22;100.00
9721;BME280;4899;42.644;23.366;2023-06-14T08:13:25;94156.91;;;22.63;100.00
9721;BME280;4899;42.644;23.366;2023-06-14T08:15:50;94151.53;;;22.84;100.00
9721;BME280;4899;42.644;23.366;2023-06-14T08:18:16;94164.16;;;22.96;100.00
9721;BME280;4899;42.644;23.366;2023-06-14T08:20:41;94161.25;;;22.87;100.00
9721;BME280;4899;42.644;23.366;2023-06-14T08:23:07;94158.28;;;22.78;100.00
9721;BME280;4899;42.644;23.366;2023-06-14T08:25:33;94164.66;;;22.77;100.00
9721;BME280;4899;42.644;23.366;2023-06-14T08:27:58;94170.25;;;22.79;100.00
9721;BME280;4899;42.644;23.366;2023-06-14T08:30:25;94172.06;;;22.93;100.00
9721;BME280;4899;42.644;23.366;2023-06-14T08:32:50;94175.38;;;23.00;100.00
9721;BME280;4899;42.644;23.366;2023-06-14T08:35:17;94164.47;;;23.09;100.00
9721;BME280;4899;42.644;23.366;2023-06-14T08:37:43;94164.00;;;23.18;100.00
9721;BME280;4899;42.644;23.366;2023-06-14T08:40:30;94167.63;;;23.35;100.00
9721;BME280;4899;42.644;23.366;2023-06-14T08:42:56;94163.03;;;23.42;100.00
9721;BME280;4899;42.644;23.366;2023-06-14T08:45:22;94167.59;;;23.38;100.00
9721;BME280;4899;42.644;23.366;2023-06-14T08:47:48;94159.75;;;23.35;100.00
9721;BME280;4899;42.644;23.366;2023-06-14T08:50:24;94162.22;;;23.49;100.00
9721;BME280;4899;42.644;23.366;2023-06-14T08:52:54;94153.13;;;23.60;100.00
9721;BME280;4899;42.644;23.366;2023-06-14T08:55:22;94149.34;;;23.65;100.00
9721;BME280;4899;42.644;23.366;2023-06-14T08:57:53;94149.56;;;23.81;100.00
9721;BME280;4899;42.644;23.366;2023-06-14T09:00:19;94157.44;;;23.81;100.00
9721;BME280;4899;42.644;23.366;2023-06-14T09:02:46;94149.06;;;23.90;100.00
9721;BME280;4899;42.644;23.366;2023-06-14T09:05:12;94147.38;;;24.03;100.00
9721;BME280;4899;42.644;23.366;2023-06-14T09:07:41;94159.34;;;24.42;100.00
9721;BME280;4899;42.644;23.366;2023-06-14T09:10:14;94154.69;;;24.80;100.00
9721;BME280;4899;42.644;23.366;2023-06-14T09:12:40;94149.84;;;25.02;100.00
9721;BME280;4899;42.644;23.366;2023-06-14T09:15:06;94151.16;;;25.13;100.00
9721;BME280;4899;42.644;23.366;2023-06-14T09:17:34;94152.88;;;25.00;100.00
9721;BME280;4899;42.644;23.366;2023-06-14T09:20:02;94152.38;;;25.09;100.00
9721;BME280;4899;42.644;23.366;2023-06-14T09:22:30;94147.09;;;25.09;100.00
9721;BME280;4899;42.644;23.366;2023-06-14T09:24:56;94149.06;;;25.05;100.00
9721;BME280;4899;42.644;23.366;2023-06-14T09:27:21;94144.66;;;24.95;100.00
9721;BME280;4899;42.644;23.366;2023-06-14T09:29:47;94147.69;;;24.93;100.00
9721;BME280;4899;42.644;23.366;2023-06-14T09:32:12;94148.41;;;24.70;100.00
9721;BME280;4899;42.644;23.366;2023-06-14T09:34:37;94141.00;;;24.89;100.00
9721;BME280;4899;42.644;23.366;2023-06-14T09:37:03;94143.97;;;24.40;100.00
9721;BME280;4899;42.644;23.366;2023-06-14T09:39:29;94146.31;;;25.12;96.71
9721;BME280;4899;42.644;23.366;2023-06-14T09:41:55;94139.44;;;25.61;91.21
9721;BME280;4899;42.644;23.366;2023-06-14T09:44:20;94138.91;;;26.10;88.26
9721;BME280;4899;42.644;23.366;2023-06-14T09:46:47;94131.44;;;26.24;89.13
9721;BME280;4899;42.644;23.366;2023-06-14T09:49:13;94130.22;;;26.29;85.29
9721;BME280;4899;42.644;23.366;2023-06-14T09:51:46;94131.53;;;26.01;82.76
9721;BME280;4899;42.644;23.366;2023-06-14T09:54:16;94144.75;;;25.81;86.92
9721;BME280;4899;42.644;23.366;2023-06-14T09:56:47;94135.50;;;25.50;88.90
9721;BME280;4899;42.644;23.366;2023-06-14T09:59:13;94126.09;;;24.78;95.48
9721;BME280;4899;42.644;23.366;2023-06-14T10:01:42;94126.75;;;24.86;95.49
9721;BME280;4899;42.644;23.366;2023-06-14T10:04:10;94124.22;;;25.06;95.15
9721;BME280;4899;42.644;23.366;2023-06-14T10:06:37;94091.88;;;25.05;94.36
9721;BME280;4899;42.644;23.366;2023-06-14T10:09:09;94112.16;;;25.08;96.16
9721;BME280;4899;42.644;23.366;2023-06-14T10:11:36;94116.41;;;25.22;95.26
9721;BME280;4899;42.644;23.366;2023-06-14T10:14:04;94103.75;;;25.37;96.10
9721;BME280;4899;42.644;23.366;2023-06-14T10:16:52;94111.88;;;25.66;81.63
9721;BME280;4899;42.644;23.366;2023-06-14T10:19:42;94102.13;;;25.63;79.13
9721;BME280;4899;42.644;23.366;2023-06-14T10:22:11;94086.06;;;25.77;85.78
9721;BME280;4899;42.644;23.366;2023-06-14T10:24:45;94098.69;;;25.66;76.49
9721;BME280;4899;42.644;23.366;2023-06-14T10:27:13;94095.75;;;25.84;82.41
9721;BME280;4899;42.644;23.366;2023-06-14T10:32:25;94101.84;;;26.17;79.37
9721;BME280;4899;42.644;23.366;2023-06-14T10:34:55;94099.38;;;26.62;75.29
9721;BME280;4899;42.644;23.366;2023-06-14T10:37:21;94099.38;;;27.69;68.28
9721;BME280;4899;42.644;23.366;2023-06-14T10:39:46;94100.09;;;28.11;64.43
9721;BME280;4899;42.644;23.366;2023-06-14T10:42:13;94093.34;;;28.10;63.49
9721;BME280;4899;42.644;23.366;2023-06-14T10:47:29;94095.84;;;28.01;61.60
9721;BME280;4899;42.644;23.366;2023-06-14T10:52:28;94096.38;;;30.19;56.81
9721;BME280;4899;42.644;23.366;2023-06-14T10:55:09;94099.59;;;30.95;50.26
9721;BME280;4899;42.644;23.366;2023-06-14T10:57:48;94087.78;;;31.87;51.82
9721;BME280;4899;42.644;23.366;2023-06-14T11:00:21;94082.16;;;32.69;48.30
9721;BME280;4899;42.644;23.366;2023-06-14T11:03:17;94083.19;;;32.96;43.71
9721;BME280;4899;42.644;23.366;2023-06-14T11:05:58;94086.72;;;33.02;48.21
9721;BME280;4899;42.644;23.366;2023-06-14T11:11:05;94068.44;;;32.20;46.95
9721;BME280;4899;42.644;23.366;2023-06-14T11:13:31;94080.38;;;32.42;49.04
9721;BME280;4899;42.644;23.366;2023-06-14T11:15:57;94074.56;;;32.11;48.68
9721;BME280;4899;42.644;23.366;2023-06-14T11:18:24;94070.84;;;31.30;50.18
9721;BME280;4899;42.644;23.366;2023-06-14T11:20:50;94075.44;;;31.29;50.76
9721;BME280;4899;42.644;23.366;2023-06-14T11:23:15;94066.69;;;31.19;50.93
9721;BME280;4899;42.644;23.366;2023-06-14T11:25:41;94061.22;;;32.29;49.32
9721;BME280;4899;42.644;23.366;2023-06-14T11:28:07;94072.00;;;33.99;46.93
9721;BME280;4899;42.644;23.366;2023-06-14T11:30:32;94065.25;;;35.29;43.98
9721;BME280;4899;42.644;23.366;2023-06-14T11:32:57;94078.28;;;35.93;41.96
9721;BME280;4899;42.644;23.366;2023-06-14T11:35:23;94071.59;;;36.83;40.57
9721;BME280;4899;42.644;23.366;2023-06-14T11:37:56;94057.56;;;37.11;37.68
9721;BME280;4899;42.644;23.366;2023-06-14T11:40:25;94066.72;;;37.52;38.59
9721;BME280;4899;42.644;23.366;2023-06-14T11:43:01;94063.09;;;38.11;36.49
9721;BME280;4899;42.644;23.366;2023-06-14T11:45:27;94073.88;;;36.96;39.89
9721;BME280;4899;42.644;23.366;2023-06-14T11:47:55;94044.13;;;35.10;41.52
9721;BME280;4899;42.644;23.366;2023-06-14T11:50:24;94060.34;;;34.31;42.65
9721;BME280;4899;42.644;23.366;2023-06-14T11:52:57;94045.16;;;33.34;42.77
9721;BME280;4899;42.644;23.366;2023-06-14T11:55:25;94036.47;;;32.62;44.95
9721;BME280;4899;42.644;23.366;2023-06-14T11:57:51;94034.25;;;33.91;43.05
9721;BME280;4899;42.644;23.366;2023-06-14T12:00:19;94018.59;;;33.69;43.29
9721;BME280;4899;42.644;23.366;2023-06-14T12:02:56;94020.09;;;33.85;41.88
9721;BME280;4899;42.644;23.366;2023-06-14T12:05:22;94019.72;;;33.48;43.46
9721;BME280;4899;42.644;23.366;2023-06-14T12:07:48;94019.50;;;33.37;43.25
9721;BME280;4899;42.644;23.366;2023-06-14T12:10:15;94009.81;;;34.13;42.48
9721;BME280;4899;42.644;23.366;2023-06-14T12:12:42;94012.53;;;34.33;42.87
9721;BME280;4899;42.644;23.366;2023-06-14T12:15:08;94015.66;;;33.82;42.98
9721;BME280;4899;42.644;23.366;2023-06-14T12:17:35;94018.63;;;33.16;43.72
9721;BME280;4899;42.644;23.366;2023-06-14T12:20:14;94015.22;;;32.20;43.55
9721;BME280;4899;42.644;23.366;2023-06-14T12:22:54;94008.91;;;31.47;43.50
9721;BME280;4899;42.644;23.366;2023-06-14T12:25:28;94014.56;;;31.22;43.74
9721;BME280;4899;42.644;23.366;2023-06-14T12:27:56;94005.97;;;30.63;45.44
9721;BME280;4899;42.644;23.366;2023-06-14T12:30:22;94000.25;;;29.84;47.46
9721;BME280;4899;42.644;23.366;2023-06-14T12:32:47;93991.38;;;29.47;48.98
9721;BME280;4899;42.644;23.366;2023-06-14T12:35:13;93986.44;;;28.93;51.08
9721;BME280;4899;42.644;23.366;2023-06-14T12:37:39;93985.72;;;28.79;52.93
9721;BME280;4899;42.644;23.366;2023-06-14T12:40:05;93975.63;;;28.53;53.43
9721;BME280;4899;42.644;23.366;2023-06-14T12:42:31;93978.09;;;28.34;53.10
9721;BME280;4899;42.644;23.366;2023-06-14T12:44:57;93980.13;;;28.05;53.40
9721;BME280;4899;42.644;23.366;2023-06-14T12:47:22;93976.09;;;27.87;54.38
9721;BME280;4899;42.644;23.366;2023-06-14T12:49:47;93975.03;;;27.72;55.44
9721;BME280;4899;42.644;23.366;2023-06-14T12:52:13;93964.72;;;27.49;56.35
9721;BME280;4899;42.644;23.366;2023-06-14T12:54:38;93961.66;;;27.38;56.72
9721;BME280;4899;42.644;23.366;2023-06-14T12:57:05;93974.34;;;27.30;55.81
9721;BME280;4899;42.644;23.366;2023-06-14T12:59:31;93973.97;;;27.15;56.72
9721;BME280;4899;42.644;23.366;2023-06-14T13:02:19;93969.53;;;26.83;58.24
9721;BME280;4899;42.644;23.366;2023-06-14T13:04:47;93975.00;;;26.60;61.52
9721;BME280;4899;42.644;23.366;2023-06-14T13:07:12;93969.50;;;26.38;66.15
9721;BME280;4899;42.644;23.366;2023-06-14T13:09:40;93961.19;;;26.07;70.43
9721;BME280;4899;42.644;23.366;2023-06-14T13:12:06;93967.75;;;25.83;73.89
9721;BME280;4899;42.644;23.366;2023-06-14T13:14:32;93969.94;;;25.48;78.88
9721;BME280;4899;42.644;23.366;2023-06-14T13:16:57;93977.25;;;25.21;84.75